Alanreed, Texas
Current Conditions -  °F | °C
As of 10:55 AM on Friday 24 Oct 2014 (Local Time) from KPPA Reporting Station
Clear Clear  
Wind Chill: 67°   Ceiling: Unl
Heat Index: 67°   Visibility: 10mi
Dew Point: 55°   Wind: 7mph
Humidity: 64%   Direction: 290°WNW
Pressure: 30.16"   Gusts: NA
Location:  35.21°N, 100.74°W
Report Text: KPPA 241555Z AUTO 29006KT 10SM CLR 20/13 A3016 RMK AO2 T01970127 PNO
Loading
Personal Weather Stations






























Interactive Weather Map
Tropical Storm Tracking
New forecast layout! Learn more

10-Day Weather Forecast

Advertisements
Track Severe Weather on mobile